sensor_id;sensor_type;location;lat;lon;timestamp;P1;durP1;ratioP1;P2;durP2;ratioP2
74849;SDS011;63397;47.480;19.238;2023-03-03T00:01:18;7.38;;;4.40;;
74849;SDS011;63397;47.480;19.238;2023-03-03T00:04:21;9.07;;;4.73;;
74849;SDS011;63397;47.480;19.238;2023-03-03T00:07:23;9.63;;;4.77;;
74849;SDS011;63397;47.480;19.238;2023-03-03T00:10:25;10.75;;;5.32;;
74849;SDS011;63397;47.480;19.238;2023-03-03T00:13:29;10.80;;;4.50;;
74849;SDS011;63397;47.480;19.238;2023-03-03T00:16:38;8.55;;;3.70;;
74849;SDS011;63397;47.480;19.238;2023-03-03T00:19:40;7.73;;;3.47;;
74849;SDS011;63397;47.480;19.238;2023-03-03T00:22:43;8.20;;;4.77;;
74849;SDS011;63397;47.480;19.238;2023-03-03T00:25:45;12.02;;;5.68;;
74849;SDS011;63397;47.480;19.238;2023-03-03T00:28:49;9.23;;;5.55;;
74849;SDS011;63397;47.480;19.238;2023-03-03T00:31:52;11.27;;;5.72;;
74849;SDS011;63397;47.480;19.238;2023-03-03T00:34:55;10.33;;;4.10;;
74849;SDS011;63397;47.480;19.238;2023-03-03T00:38:09;12.67;;;5.70;;
74849;SDS011;63397;47.480;19.238;2023-03-03T00:41:25;7.28;;;3.92;;
74849;SDS011;63397;47.480;19.238;2023-03-03T00:47:36;9.98;;;4.03;;
74849;SDS011;63397;47.480;19.238;2023-03-03T00:50:40;6.87;;;3.50;;
74849;SDS011;63397;47.480;19.238;2023-03-03T00:53:44;8.40;;;3.67;;
74849;SDS011;63397;47.480;19.238;2023-03-03T00:56:46;13.07;;;4.70;;
74849;SDS011;63397;47.480;19.238;2023-03-03T00:59:48;8.52;;;4.15;;
74849;SDS011;63397;47.480;19.238;2023-03-03T01:02:51;9.13;;;3.28;;
74849;SDS011;63397;47.480;19.238;2023-03-03T01:05:54;6.93;;;3.93;;
74849;SDS011;63397;47.480;19.238;2023-03-03T01:08:56;10.03;;;4.40;;
74849;SDS011;63397;47.480;19.238;2023-03-03T01:11:58;5.90;;;3.20;;
74849;SDS011;63397;47.480;19.238;2023-03-03T01:15:01;8.23;;;3.70;;
74849;SDS011;63397;47.480;19.238;2023-03-03T01:18:03;6.88;;;4.28;;
74849;SDS011;63397;47.480;19.238;2023-03-03T01:21:06;5.73;;;3.07;;
74849;SDS011;63397;47.480;19.238;2023-03-03T01:24:09;7.57;;;4.27;;
74849;SDS011;63397;47.480;19.238;2023-03-03T01:27:11;8.20;;;4.18;;
74849;SDS011;63397;47.480;19.238;2023-03-03T01:30:13;11.07;;;6.22;;
74849;SDS011;63397;47.480;19.238;2023-03-03T01:33:16;11.32;;;4.25;;
74849;SDS011;63397;47.480;19.238;2023-03-03T01:36:23;6.73;;;2.47;;
74849;SDS011;63397;47.480;19.238;2023-03-03T01:39:25;8.70;;;4.43;;
74849;SDS011;63397;47.480;19.238;2023-03-03T01:42:28;7.32;;;3.70;;
74849;SDS011;63397;47.480;19.238;2023-03-03T01:49:06;7.32;;;3.35;;
74849;SDS011;63397;47.480;19.238;2023-03-03T01:52:13;4.43;;;2.00;;
74849;SDS011;63397;47.480;19.238;2023-03-03T01:55:22;12.20;;;3.93;;
74849;SDS011;63397;47.480;19.238;2023-03-03T01:58:30;7.85;;;4.28;;
74849;SDS011;63397;47.480;19.238;2023-03-03T02:01:35;5.05;;;3.03;;
74849;SDS011;63397;47.480;19.238;2023-03-03T02:04:37;9.73;;;4.38;;
74849;SDS011;63397;47.480;19.238;2023-03-03T02:07:40;4.80;;;2.30;;
74849;SDS011;63397;47.480;19.238;2023-03-03T02:10:42;8.27;;;3.47;;
74849;SDS011;63397;47.480;19.238;2023-03-03T02:13:46;5.80;;;2.58;;
74849;SDS011;63397;47.480;19.238;2023-03-03T02:16:48;7.00;;;3.15;;
74849;SDS011;63397;47.480;19.238;2023-03-03T02:26:01;6.53;;;3.30;;
74849;SDS011;63397;47.480;19.238;2023-03-03T02:29:04;4.65;;;2.35;;
74849;SDS011;63397;47.480;19.238;2023-03-03T02:32:06;9.70;;;3.85;;
74849;SDS011;63397;47.480;19.238;2023-03-03T02:38:45;5.67;;;3.40;;
74849;SDS011;63397;47.480;19.238;2023-03-03T02:44:52;4.15;;;2.70;;
74849;SDS011;63397;47.480;19.238;2023-03-03T02:47:54;4.47;;;2.20;;
74849;SDS011;63397;47.480;19.238;2023-03-03T02:50:56;8.75;;;3.55;;
74849;SDS011;63397;47.480;19.238;2023-03-03T02:53:59;7.13;;;2.97;;
74849;SDS011;63397;47.480;19.238;2023-03-03T02:57:03;5.70;;;2.60;;
74849;SDS011;63397;47.480;19.238;2023-03-03T03:00:06;8.65;;;4.40;;
74849;SDS011;63397;47.480;19.238;2023-03-03T03:03:08;12.07;;;3.10;;
74849;SDS011;63397;47.480;19.238;2023-03-03T03:06:12;6.75;;;3.75;;
74849;SDS011;63397;47.480;19.238;2023-03-03T03:09:16;4.30;;;2.27;;
74849;SDS011;63397;47.480;19.238;2023-03-03T03:12:20;7.43;;;3.97;;
74849;SDS011;63397;47.480;19.238;2023-03-03T03:15:26;7.55;;;2.72;;
74849;SDS011;63397;47.480;19.238;2023-03-03T03:18:28;5.70;;;3.30;;
74849;SDS011;63397;47.480;19.238;2023-03-03T03:21:32;3.17;;;2.08;;
74849;SDS011;63397;47.480;19.238;2023-03-03T03:24:34;4.90;;;3.07;;
74849;SDS011;63397;47.480;19.238;2023-03-03T03:27:40;5.37;;;3.13;;
74849;SDS011;63397;47.480;19.238;2023-03-03T03:30:42;8.30;;;3.15;;
74849;SDS011;63397;47.480;19.238;2023-03-03T03:33:47;8.88;;;3.58;;
74849;SDS011;63397;47.480;19.238;2023-03-03T03:36:50;8.38;;;3.78;;
74849;SDS011;63397;47.480;19.238;2023-03-03T03:39:55;7.20;;;4.20;;
74849;SDS011;63397;47.480;19.238;2023-03-03T03:42:59;8.23;;;4.17;;
74849;SDS011;63397;47.480;19.238;2023-03-03T03:46:01;11.00;;;4.75;;
74849;SDS011;63397;47.480;19.238;2023-03-03T03:49:04;8.07;;;4.18;;
74849;SDS011;63397;47.480;19.238;2023-03-03T03:52:07;4.88;;;2.72;;
74849;SDS011;63397;47.480;19.238;2023-03-03T03:55:09;8.30;;;4.00;;
74849;SDS011;63397;47.480;19.238;2023-03-03T03:58:14;7.43;;;5.40;;
74849;SDS011;63397;47.480;19.238;2023-03-03T04:01:22;5.10;;;2.55;;
74849;SDS011;63397;47.480;19.238;2023-03-03T04:04:25;7.65;;;3.55;;
74849;SDS011;63397;47.480;19.238;2023-03-03T04:07:28;5.75;;;2.63;;
74849;SDS011;63397;47.480;19.238;2023-03-03T04:10:31;5.40;;;3.17;;
74849;SDS011;63397;47.480;19.238;2023-03-03T04:13:33;8.83;;;3.80;;
74849;SDS011;63397;47.480;19.238;2023-03-03T04:16:39;9.35;;;5.05;;
74849;SDS011;63397;47.480;19.238;2023-03-03T04:19:42;5.63;;;3.00;;
74849;SDS011;63397;47.480;19.238;2023-03-03T04:22:45;10.30;;;4.40;;
74849;SDS011;63397;47.480;19.238;2023-03-03T04:25:47;10.97;;;4.23;;
74849;SDS011;63397;47.480;19.238;2023-03-03T04:28:50;10.53;;;5.20;;
74849;SDS011;63397;47.480;19.238;2023-03-03T04:31:53;11.70;;;4.40;;
74849;SDS011;63397;47.480;19.238;2023-03-03T04:34:57;11.70;;;4.40;;
74849;SDS011;63397;47.480;19.238;2023-03-03T04:38:11;6.97;;;3.47;;
74849;SDS011;63397;47.480;19.238;2023-03-03T04:41:14;7.87;;;1.97;;
74849;SDS011;63397;47.480;19.238;2023-03-03T04:44:17;4.47;;;2.90;;
74849;SDS011;63397;47.480;19.238;2023-03-03T04:47:19;10.05;;;4.68;;
74849;SDS011;63397;47.480;19.238;2023-03-03T04:50:22;8.05;;;3.53;;
74849;SDS011;63397;47.480;19.238;2023-03-03T04:53:24;7.88;;;3.55;;
74849;SDS011;63397;47.480;19.238;2023-03-03T04:56:27;6.97;;;4.20;;
74849;SDS011;63397;47.480;19.238;2023-03-03T04:59:30;11.27;;;4.70;;
74849;SDS011;63397;47.480;19.238;2023-03-03T05:02:33;7.30;;;3.47;;
74849;SDS011;63397;47.480;19.238;2023-03-03T05:05:35;6.55;;;3.30;;
74849;SDS011;63397;47.480;19.238;2023-03-03T05:08:37;6.28;;;3.15;;
74849;SDS011;63397;47.480;19.238;2023-03-03T05:11:40;14.67;;;3.47;;
74849;SDS011;63397;47.480;19.238;2023-03-03T05:14:42;9.13;;;3.40;;
74849;SDS011;63397;47.480;19.238;2023-03-03T05:17:44;6.95;;;3.17;;
74849;SDS011;63397;47.480;19.238;2023-03-03T05:20:46;4.15;;;2.42;;
74849;SDS011;63397;47.480;19.238;2023-03-03T05:23:49;7.47;;;3.92;;
74849;SDS011;63397;47.480;19.238;2023-03-03T05:26:51;10.27;;;5.00;;
74849;SDS011;63397;47.480;19.238;2023-03-03T05:29:53;13.10;;;4.37;;
74849;SDS011;63397;47.480;19.238;2023-03-03T05:32:55;7.75;;;4.18;;
74849;SDS011;63397;47.480;19.238;2023-03-03T05:36:02;14.38;;;5.30;;
74849;SDS011;63397;47.480;19.238;2023-03-03T05:39:04;6.95;;;4.07;;
74849;SDS011;63397;47.480;19.238;2023-03-03T05:42:06;9.37;;;4.97;;
74849;SDS011;63397;47.480;19.238;2023-03-03T05:45:09;10.30;;;4.30;;
74849;SDS011;63397;47.480;19.238;2023-03-03T05:48:11;6.13;;;3.67;;
74849;SDS011;63397;47.480;19.238;2023-03-03T05:51:13;10.02;;;3.33;;
74849;SDS011;63397;47.480;19.238;2023-03-03T05:54:16;7.75;;;3.47;;
74849;SDS011;63397;47.480;19.238;2023-03-03T05:57:18;6.87;;;3.83;;
74849;SDS011;63397;47.480;19.238;2023-03-03T06:00:21;6.87;;;3.30;;
74849;SDS011;63397;47.480;19.238;2023-03-03T06:03:23;6.35;;;3.60;;
74849;SDS011;63397;47.480;19.238;2023-03-03T06:06:25;8.57;;;3.38;;
74849;SDS011;63397;47.480;19.238;2023-03-03T06:09:29;8.07;;;4.68;;
74849;SDS011;63397;47.480;19.238;2023-03-03T06:12:31;11.07;;;4.07;;
74849;SDS011;63397;47.480;19.238;2023-03-03T06:15:33;8.13;;;4.20;;
74849;SDS011;63397;47.480;19.238;2023-03-03T06:18:35;9.73;;;4.07;;
74849;SDS011;63397;47.480;19.238;2023-03-03T06:21:38;16.42;;;6.15;;
74849;SDS011;63397;47.480;19.238;2023-03-03T06:24:40;7.00;;;4.00;;
74849;SDS011;63397;47.480;19.238;2023-03-03T06:27:42;9.47;;;5.20;;
74849;SDS011;63397;47.480;19.238;2023-03-03T06:30:45;13.37;;;6.27;;
74849;SDS011;63397;47.480;19.238;2023-03-03T06:33:47;10.48;;;5.93;;
74849;SDS011;63397;47.480;19.238;2023-03-03T06:36:49;13.00;;;6.18;;
74849;SDS011;63397;47.480;19.238;2023-03-03T06:39:51;11.20;;;6.10;;
74849;SDS011;63397;47.480;19.238;2023-03-03T06:42:54;8.65;;;3.63;;
74849;SDS011;63397;47.480;19.238;2023-03-03T06:45:56;11.90;;;5.33;;
74849;SDS011;63397;47.480;19.238;2023-03-03T06:48:59;6.65;;;3.90;;
74849;SDS011;63397;47.480;19.238;2023-03-03T06:52:09;6.97;;;4.20;;
74849;SDS011;63397;47.480;19.238;2023-03-03T06:55:14;12.98;;;6.70;;
74849;SDS011;63397;47.480;19.238;2023-03-03T06:58:18;8.80;;;4.70;;
74849;SDS011;63397;47.480;19.238;2023-03-03T07:01:21;11.93;;;5.70;;
74849;SDS011;63397;47.480;19.238;2023-03-03T07:07:27;13.25;;;6.68;;
74849;SDS011;63397;47.480;19.238;2023-03-03T07:10:29;17.92;;;6.45;;
74849;SDS011;63397;47.480;19.238;2023-03-03T07:13:32;13.32;;;6.88;;
74849;SDS011;63397;47.480;19.238;2023-03-03T07:16:34;12.47;;;7.20;;
74849;SDS011;63397;47.480;19.238;2023-03-03T07:19:37;12.90;;;7.10;;
74849;SDS011;63397;47.480;19.238;2023-03-03T07:22:42;13.48;;;7.05;;
74849;SDS011;63397;47.480;19.238;2023-03-03T07:25:44;15.27;;;7.80;;
74849;SDS011;63397;47.480;19.238;2023-03-03T07:28:55;17.83;;;8.68;;
74849;SDS011;63397;47.480;19.238;2023-03-03T07:31:57;12.67;;;6.63;;
74849;SDS011;63397;47.480;19.238;2023-03-03T07:35:00;14.57;;;7.50;;
74849;SDS011;63397;47.480;19.238;2023-03-03T07:41:16;14.68;;;7.72;;
74849;SDS011;63397;47.480;19.238;2023-03-03T07:44:30;14.45;;;8.25;;
74849;SDS011;63397;47.480;19.238;2023-03-03T07:47:35;15.37;;;7.57;;
74849;SDS011;63397;47.480;19.238;2023-03-03T07:50:41;18.25;;;8.98;;
74849;SDS011;63397;47.480;19.238;2023-03-03T07:53:43;16.27;;;9.60;;
74849;SDS011;63397;47.480;19.238;2023-03-03T07:56:45;20.05;;;9.30;;
74849;SDS011;63397;47.480;19.238;2023-03-03T07:59:49;18.55;;;8.90;;
74849;SDS011;63397;47.480;19.238;2023-03-03T08:02:56;18.57;;;8.97;;
74849;SDS011;63397;47.480;19.238;2023-03-03T08:05:59;15.95;;;7.90;;
74849;SDS011;63397;47.480;19.238;2023-03-03T08:15:27;18.55;;;9.57;;
74849;SDS011;63397;47.480;19.238;2023-03-03T08:18:39;18.97;;;9.50;;
74849;SDS011;63397;47.480;19.238;2023-03-03T08:21:43;19.10;;;8.75;;
74849;SDS011;63397;47.480;19.238;2023-03-03T08:24:45;19.83;;;10.27;;
74849;SDS011;63397;47.480;19.238;2023-03-03T08:27:47;21.70;;;10.05;;
74849;SDS011;63397;47.480;19.238;2023-03-03T08:30:50;21.25;;;9.48;;
74849;SDS011;63397;47.480;19.238;2023-03-03T08:34:00;18.07;;;9.63;;
74849;SDS011;63397;47.480;19.238;2023-03-03T08:37:04;17.10;;;8.43;;
74849;SDS011;63397;47.480;19.238;2023-03-03T08:40:06;19.27;;;9.40;;
74849;SDS011;63397;47.480;19.238;2023-03-03T08:43:09;18.13;;;9.07;;
74849;SDS011;63397;47.480;19.238;2023-03-03T08:46:12;16.17;;;9.52;;
74849;SDS011;63397;47.480;19.238;2023-03-03T08:49:14;17.83;;;8.27;;
74849;SDS011;63397;47.480;19.238;2023-03-03T08:52:16;20.15;;;10.07;;
74849;SDS011;63397;47.480;19.238;2023-03-03T08:55:19;18.95;;;8.60;;
74849;SDS011;63397;47.480;19.238;2023-03-03T08:58:21;16.27;;;8.07;;
74849;SDS011;63397;47.480;19.238;2023-03-03T09:01:35;17.70;;;9.00;;
74849;SDS011;63397;47.480;19.238;2023-03-03T09:04:38;15.87;;;8.33;;
74849;SDS011;63397;47.480;19.238;2023-03-03T09:07:40;17.08;;;7.85;;
74849;SDS011;63397;47.480;19.238;2023-03-03T09:10:43;17.25;;;7.82;;
74849;SDS011;63397;47.480;19.238;2023-03-03T09:13:45;17.33;;;7.50;;
74849;SDS011;63397;47.480;19.238;2023-03-03T09:16:49;14.27;;;5.72;;
74849;SDS011;63397;47.480;19.238;2023-03-03T09:19:54;14.90;;;7.83;;
74849;SDS011;63397;47.480;19.238;2023-03-03T09:22:57;14.82;;;6.75;;
74849;SDS011;63397;47.480;19.238;2023-03-03T09:29:27;13.43;;;6.50;;
74849;SDS011;63397;47.480;19.238;2023-03-03T09:32:33;16.35;;;6.57;;
74849;SDS011;63397;47.480;19.238;2023-03-03T09:35:37;13.03;;;5.87;;
74849;SDS011;63397;47.480;19.238;2023-03-03T09:38:41;15.20;;;6.80;;
74849;SDS011;63397;47.480;19.238;2023-03-03T09:57:14;14.15;;;5.35;;
74849;SDS011;63397;47.480;19.238;2023-03-03T10:10:09;7.95;;;3.35;;
74849;SDS011;63397;47.480;19.238;2023-03-03T10:22:54;9.10;;;4.40;;
74849;SDS011;63397;47.480;19.238;2023-03-03T10:26:06;10.25;;;4.00;;
74849;SDS011;63397;47.480;19.238;2023-03-03T10:39:13;11.13;;;4.77;;
74849;SDS011;63397;47.480;19.238;2023-03-03T10:52:10;8.00;;;3.65;;
74849;SDS011;63397;47.480;19.238;2023-03-03T10:55:18;6.60;;;3.30;;
74849;SDS011;63397;47.480;19.238;2023-03-03T11:01:41;11.50;;;3.80;;
74849;SDS011;63397;47.480;19.238;2023-03-03T11:05:08;11.77;;;3.65;;
74849;SDS011;63397;47.480;19.238;2023-03-03T11:08:22;8.73;;;3.83;;
74849;SDS011;63397;47.480;19.238;2023-03-03T11:12:14;8.80;;;3.70;;
74849;SDS011;63397;47.480;19.238;2023-03-03T11:21:12;7.70;;;3.15;;
74849;SDS011;63397;47.480;19.238;2023-03-03T11:24:18;8.88;;;3.88;;
74849;SDS011;63397;47.480;19.238;2023-03-03T11:27:31;6.57;;;3.03;;
74849;SDS011;63397;47.480;19.238;2023-03-03T11:40:18;4.55;;;2.80;;
74849;SDS011;63397;47.480;19.238;2023-03-03T11:43:31;6.23;;;2.93;;
74849;SDS011;63397;47.480;19.238;2023-03-03T11:46:44;7.95;;;3.75;;
74849;SDS011;63397;47.480;19.238;2023-03-03T11:53:09;11.77;;;4.68;;
74849;SDS011;63397;47.480;19.238;2023-03-03T11:59:59;8.97;;;3.57;;
74849;SDS011;63397;47.480;19.238;2023-03-03T12:03:16;8.32;;;3.80;;
74849;SDS011;63397;47.480;19.238;2023-03-03T12:09:48;7.80;;;3.35;;
74849;SDS011;63397;47.480;19.238;2023-03-03T12:12:59;9.38;;;4.20;;
74849;SDS011;63397;47.480;19.238;2023-03-03T12:16:06;8.80;;;3.53;;
74849;SDS011;63397;47.480;19.238;2023-03-03T12:19:13;10.20;;;4.40;;
74849;SDS011;63397;47.480;19.238;2023-03-03T12:22:31;9.90;;;4.20;;
74849;SDS011;63397;47.480;19.238;2023-03-03T12:25:36;9.25;;;4.10;;
74849;SDS011;63397;47.480;19.238;2023-03-03T12:28:45;12.30;;;4.60;;
74849;SDS011;63397;47.480;19.238;2023-03-03T12:41:22;10.15;;;4.28;;
74849;SDS011;63397;47.480;19.238;2023-03-03T12:44:33;9.75;;;4.28;;
74849;SDS011;63397;47.480;19.238;2023-03-03T12:47:39;8.57;;;3.63;;
74849;SDS011;63397;47.480;19.238;2023-03-03T13:00:27;11.20;;;4.47;;
74849;SDS011;63397;47.480;19.238;2023-03-03T13:03:37;10.23;;;4.23;;
74849;SDS011;63397;47.480;19.238;2023-03-03T13:13:26;9.75;;;3.90;;
74849;SDS011;63397;47.480;19.238;2023-03-03T13:16:35;9.00;;;4.10;;
74849;SDS011;63397;47.480;19.238;2023-03-03T13:19:48;13.70;;;4.77;;
74849;SDS011;63397;47.480;19.238;2023-03-03T13:22:54;9.75;;;4.32;;
74849;SDS011;63397;47.480;19.238;2023-03-03T13:29:36;10.45;;;4.50;;
74849;SDS011;63397;47.480;19.238;2023-03-03T13:32:43;12.65;;;5.05;;
74849;SDS011;63397;47.480;19.238;2023-03-03T13:35:55;9.70;;;4.37;;
74849;SDS011;63397;47.480;19.238;2023-03-03T13:38:59;10.80;;;4.63;;
74849;SDS011;63397;47.480;19.238;2023-03-03T13:42:22;12.27;;;4.95;;
74849;SDS011;63397;47.480;19.238;2023-03-03T13:48:50;10.07;;;4.75;;
74849;SDS011;63397;47.480;19.238;2023-03-03T13:58:19;13.85;;;4.65;;
74849;SDS011;63397;47.480;19.238;2023-03-03T14:01:45;10.50;;;4.35;;
74849;SDS011;63397;47.480;19.238;2023-03-03T14:04:52;9.77;;;4.25;;
74849;SDS011;63397;47.480;19.238;2023-03-03T14:07:58;11.30;;;4.43;;
74849;SDS011;63397;47.480;19.238;2023-03-03T14:11:10;10.27;;;4.35;;
74849;SDS011;63397;47.480;19.238;2023-03-03T14:20:27;10.07;;;4.55;;
74849;SDS011;63397;47.480;19.238;2023-03-03T14:23:32;9.30;;;4.20;;
74849;SDS011;63397;47.480;19.238;2023-03-03T14:26:45;11.10;;;4.50;;
74849;SDS011;63397;47.480;19.238;2023-03-03T14:29:48;8.88;;;3.97;;
74849;SDS011;63397;47.480;19.238;2023-03-03T14:32:57;11.98;;;5.20;;
74849;SDS011;63397;47.480;19.238;2023-03-03T14:36:01;8.18;;;3.40;;
74849;SDS011;63397;47.480;19.238;2023-03-03T14:39:25;11.93;;;4.10;;
74849;SDS011;63397;47.480;19.238;2023-03-03T14:42:30;12.15;;;3.92;;
74849;SDS011;63397;47.480;19.238;2023-03-03T14:45:38;7.85;;;3.95;;
74849;SDS011;63397;47.480;19.238;2023-03-03T14:48:50;11.65;;;4.18;;
74849;SDS011;63397;47.480;19.238;2023-03-03T14:51:53;8.65;;;3.72;;
74849;SDS011;63397;47.480;19.238;2023-03-03T14:55:04;10.70;;;4.60;;
74849;SDS011;63397;47.480;19.238;2023-03-03T15:01:36;11.32;;;4.47;;
74849;SDS011;63397;47.480;19.238;2023-03-03T15:04:38;11.77;;;5.00;;
74849;SDS011;63397;47.480;19.238;2023-03-03T15:07:41;12.35;;;4.90;;
74849;SDS011;63397;47.480;19.238;2023-03-03T15:10:44;9.77;;;4.17;;
74849;SDS011;63397;47.480;19.238;2023-03-03T15:13:46;13.38;;;4.78;;
74849;SDS011;63397;47.480;19.238;2023-03-03T15:16:49;11.48;;;4.45;;
74849;SDS011;63397;47.480;19.238;2023-03-03T15:26:09;12.13;;;5.43;;
74849;SDS011;63397;47.480;19.238;2023-03-03T15:29:28;12.38;;;5.40;;
74849;SDS011;63397;47.480;19.238;2023-03-03T15:52:15;11.23;;;3.97;;
74849;SDS011;63397;47.480;19.238;2023-03-03T15:58:45;11.00;;;4.43;;
74849;SDS011;63397;47.480;19.238;2023-03-03T16:05:23;10.45;;;3.83;;
74849;SDS011;63397;47.480;19.238;2023-03-03T16:27:37;11.98;;;4.43;;
74849;SDS011;63397;47.480;19.238;2023-03-03T16:30:48;8.10;;;3.67;;
74849;SDS011;63397;47.480;19.238;2023-03-03T16:34:06;7.25;;;4.15;;
74849;SDS011;63397;47.480;19.238;2023-03-03T16:37:19;6.63;;;3.65;;
74849;SDS011;63397;47.480;19.238;2023-03-03T16:46:41;8.43;;;4.27;;
74849;SDS011;63397;47.480;19.238;2023-03-03T16:49:47;7.43;;;3.70;;
74849;SDS011;63397;47.480;19.238;2023-03-03T16:56:07;8.52;;;3.85;;
74849;SDS011;63397;47.480;19.238;2023-03-03T16:59:35;7.45;;;3.17;;
74849;SDS011;63397;47.480;19.238;2023-03-03T17:05:50;9.15;;;4.45;;
74849;SDS011;63397;47.480;19.238;2023-03-03T17:18:11;8.60;;;4.27;;
74849;SDS011;63397;47.480;19.238;2023-03-03T17:21:39;13.88;;;4.78;;
74849;SDS011;63397;47.480;19.238;2023-03-03T17:28:15;9.63;;;4.28;;
74849;SDS011;63397;47.480;19.238;2023-03-03T17:46:58;11.50;;;5.38;;
74849;SDS011;63397;47.480;19.238;2023-03-03T17:53:22;10.77;;;4.53;;
74849;SDS011;63397;47.480;19.238;2023-03-03T17:56:30;11.45;;;5.13;;
74849;SDS011;63397;47.480;19.238;2023-03-03T17:59:44;12.05;;;5.40;;
74849;SDS011;63397;47.480;19.238;2023-03-03T18:12:43;11.48;;;5.50;;
74849;SDS011;63397;47.480;19.238;2023-03-03T18:22:48;20.70;;;7.33;;
74849;SDS011;63397;47.480;19.238;2023-03-03T18:25:55;13.00;;;5.93;;
74849;SDS011;63397;47.480;19.238;2023-03-03T18:32:20;9.90;;;5.20;;
74849;SDS011;63397;47.480;19.238;2023-03-03T18:35:41;14.45;;;6.78;;
74849;SDS011;63397;47.480;19.238;2023-03-03T18:38:45;11.43;;;4.67;;
74849;SDS011;63397;47.480;19.238;2023-03-03T18:42:08;13.30;;;6.90;;
74849;SDS011;63397;47.480;19.238;2023-03-03T18:48:20;13.55;;;6.63;;
74849;SDS011;63397;47.480;19.238;2023-03-03T18:54:57;11.30;;;6.07;;
74849;SDS011;63397;47.480;19.238;2023-03-03T18:58:48;15.15;;;6.22;;
74849;SDS011;63397;47.480;19.238;2023-03-03T19:04:34;19.73;;;7.28;;
74849;SDS011;63397;47.480;19.238;2023-03-03T19:13:48;12.93;;;8.32;;
74849;SDS011;63397;47.480;19.238;2023-03-03T19:16:51;16.13;;;7.10;;
74849;SDS011;63397;47.480;19.238;2023-03-03T19:20:13;13.75;;;8.02;;
74849;SDS011;63397;47.480;19.238;2023-03-03T19:23:19;17.67;;;8.57;;
74849;SDS011;63397;47.480;19.238;2023-03-03T19:32:52;11.48;;;5.93;;
74849;SDS011;63397;47.480;19.238;2023-03-03T19:36:13;10.27;;;6.38;;
74849;SDS011;63397;47.480;19.238;2023-03-03T19:55:39;9.77;;;5.80;;
74849;SDS011;63397;47.480;19.238;2023-03-03T19:58:51;12.77;;;5.50;;
74849;SDS011;63397;47.480;19.238;2023-03-03T20:05:03;9.85;;;5.55;;
74849;SDS011;63397;47.480;19.238;2023-03-03T20:08:12;14.40;;;6.95;;
74849;SDS011;63397;47.480;19.238;2023-03-03T20:33:38;9.77;;;5.25;;
74849;SDS011;63397;47.480;19.238;2023-03-03T20:39:54;16.05;;;6.47;;
74849;SDS011;63397;47.480;19.238;2023-03-03T20:43:11;11.27;;;5.27;;
74849;SDS011;63397;47.480;19.238;2023-03-03T20:46:21;10.83;;;5.60;;
74849;SDS011;63397;47.480;19.238;2023-03-03T20:50:13;17.27;;;6.85;;
74849;SDS011;63397;47.480;19.238;2023-03-03T20:56:05;11.52;;;5.80;;
74849;SDS011;63397;47.480;19.238;2023-03-03T20:59:17;9.30;;;4.67;;
74849;SDS011;63397;47.480;19.238;2023-03-03T21:02:25;17.27;;;6.27;;
74849;SDS011;63397;47.480;19.238;2023-03-03T21:05:29;13.15;;;5.82;;
74849;SDS011;63397;47.480;19.238;2023-03-03T21:11:41;7.55;;;4.25;;
74849;SDS011;63397;47.480;19.238;2023-03-03T21:14:44;16.90;;;5.97;;
74849;SDS011;63397;47.480;19.238;2023-03-03T21:17:59;11.33;;;5.07;;
74849;SDS011;63397;47.480;19.238;2023-03-03T21:21:20;10.23;;;4.40;;
74849;SDS011;63397;47.480;19.238;2023-03-03T21:24:25;9.02;;;5.18;;
74849;SDS011;63397;47.480;19.238;2023-03-03T21:27:45;11.30;;;5.22;;
74849;SDS011;63397;47.480;19.238;2023-03-03T21:34:15;13.87;;;4.23;;
74849;SDS011;63397;47.480;19.238;2023-03-03T21:37:41;9.57;;;5.13;;
74849;SDS011;63397;47.480;19.238;2023-03-03T21:40:40;13.55;;;5.85;;
74849;SDS011;63397;47.480;19.238;2023-03-03T21:43:46;16.40;;;5.63;;
74849;SDS011;63397;47.480;19.238;2023-03-03T21:46:49;9.50;;;5.07;;
74849;SDS011;63397;47.480;19.238;2023-03-03T21:49:51;15.00;;;5.63;;
74849;SDS011;63397;47.480;19.238;2023-03-03T21:52:53;13.13;;;5.22;;
74849;SDS011;63397;47.480;19.238;2023-03-03T21:55:57;7.28;;;3.53;;
74849;SDS011;63397;47.480;19.238;2023-03-03T21:58:59;12.65;;;6.10;;
74849;SDS011;63397;47.480;19.238;2023-03-03T22:02:01;11.07;;;4.73;;
74849;SDS011;63397;47.480;19.238;2023-03-03T22:05:04;7.07;;;3.97;;
74849;SDS011;63397;47.480;19.238;2023-03-03T22:08:08;6.82;;;3.55;;
74849;SDS011;63397;47.480;19.238;2023-03-03T22:11:10;8.63;;;4.53;;
74849;SDS011;63397;47.480;19.238;2023-03-03T22:14:14;12.43;;;3.78;;
74849;SDS011;63397;47.480;19.238;2023-03-03T22:17:17;16.53;;;6.03;;
74849;SDS011;63397;47.480;19.238;2023-03-03T22:20:19;9.73;;;5.50;;
74849;SDS011;63397;47.480;19.238;2023-03-03T22:23:21;8.20;;;4.75;;
74849;SDS011;63397;47.480;19.238;2023-03-03T22:26:23;8.88;;;5.53;;
74849;SDS011;63397;47.480;19.238;2023-03-03T22:29:26;11.63;;;4.38;;
74849;SDS011;63397;47.480;19.238;2023-03-03T22:32:28;9.20;;;3.93;;
74849;SDS011;63397;47.480;19.238;2023-03-03T22:35:30;8.60;;;3.57;;
74849;SDS011;63397;47.480;19.238;2023-03-03T22:38:33;10.70;;;3.72;;
74849;SDS011;63397;47.480;19.238;2023-03-03T22:41:35;6.72;;;4.45;;
74849;SDS011;63397;47.480;19.238;2023-03-03T22:44:37;7.82;;;3.45;;
74849;SDS011;63397;47.480;19.238;2023-03-03T22:47:39;7.47;;;3.27;;
74849;SDS011;63397;47.480;19.238;2023-03-03T22:50:41;6.53;;;3.47;;
74849;SDS011;63397;47.480;19.238;2023-03-03T22:53:46;9.07;;;3.20;;
74849;SDS011;63397;47.480;19.238;2023-03-03T22:56:48;11.98;;;3.92;;
74849;SDS011;63397;47.480;19.238;2023-03-03T22:59:50;7.80;;;2.97;;
74849;SDS011;63397;47.480;19.238;2023-03-03T23:02:52;5.67;;;3.73;;
74849;SDS011;63397;47.480;19.238;2023-03-03T23:05:54;8.50;;;5.00;;
74849;SDS011;63397;47.480;19.238;2023-03-03T23:08:57;9.88;;;4.80;;
74849;SDS011;63397;47.480;19.238;2023-03-03T23:11:59;8.02;;;4.25;;
74849;SDS011;63397;47.480;19.238;2023-03-03T23:15:01;12.43;;;4.72;;
74849;SDS011;63397;47.480;19.238;2023-03-03T23:18:05;14.17;;;5.73;;
74849;SDS011;63397;47.480;19.238;2023-03-03T23:21:07;11.90;;;5.67;;
74849;SDS011;63397;47.480;19.238;2023-03-03T23:24:09;17.08;;;6.63;;
74849;SDS011;63397;47.480;19.238;2023-03-03T23:27:12;10.68;;;5.60;;
74849;SDS011;63397;47.480;19.238;2023-03-03T23:30:15;7.30;;;4.50;;
74849;SDS011;63397;47.480;19.238;2023-03-03T23:33:18;17.77;;;9.10;;
74849;SDS011;63397;47.480;19.238;2023-03-03T23:36:20;9.30;;;4.70;;
74849;SDS011;63397;47.480;19.238;2023-03-03T23:39:23;8.63;;;5.18;;
74849;SDS011;63397;47.480;19.238;2023-03-03T23:42:25;15.20;;;6.05;;
74849;SDS011;63397;47.480;19.238;2023-03-03T23:45:28;8.80;;;5.05;;
74849;SDS011;63397;47.480;19.238;2023-03-03T23:48:31;7.80;;;3.63;;
74849;SDS011;63397;47.480;19.238;2023-03-03T23:51:33;13.93;;;5.13;;
74849;SDS011;63397;47.480;19.238;2023-03-03T23:54:35;7.85;;;4.72;;
74849;SDS011;63397;47.480;19.238;2023-03-03T23:57:37;7.63;;;4.35;;
